sensor_id;sensor_type;location;lat;lon;timestamp;P1;durP1;ratioP1;P2;durP2;ratioP2
75408;SDS011;63979;55.644;37.734;2023-11-18T00:04:18;1.08;;;0.85;;
75408;SDS011;63979;55.644;37.734;2023-11-18T00:09:19;4.88;;;1.48;;
75408;SDS011;63979;55.644;37.734;2023-11-18T00:14:20;2.42;;;1.38;;
75408;SDS011;63979;55.644;37.734;2023-11-18T00:19:21;1.42;;;1.30;;
75408;SDS011;63979;55.644;37.734;2023-11-18T00:24:22;1.33;;;0.82;;
75408;SDS011;63979;55.644;37.734;2023-11-18T00:29:25;3.42;;;1.13;;
75408;SDS011;63979;55.644;37.734;2023-11-18T00:34:26;2.38;;;1.17;;
75408;SDS011;63979;55.644;37.734;2023-11-18T00:39:29;3.00;;;1.38;;
75408;SDS011;63979;55.644;37.734;2023-11-18T00:44:29;2.55;;;1.20;;
75408;SDS011;63979;55.644;37.734;2023-11-18T00:49:30;3.33;;;1.95;;
75408;SDS011;63979;55.644;37.734;2023-11-18T00:54:31;3.53;;;0.95;;
75408;SDS011;63979;55.644;37.734;2023-11-18T00:59:32;1.98;;;1.88;;
75408;SDS011;63979;55.644;37.734;2023-11-18T01:04:32;3.80;;;1.75;;
75408;SDS011;63979;55.644;37.734;2023-11-18T01:09:33;2.25;;;1.23;;
75408;SDS011;63979;55.644;37.734;2023-11-18T01:14:39;4.75;;;1.20;;
75408;SDS011;63979;55.644;37.734;2023-11-18T01:19:40;1.70;;;1.02;;
75408;SDS011;63979;55.644;37.734;2023-11-18T01:24:40;1.02;;;0.82;;
75408;SDS011;63979;55.644;37.734;2023-11-18T01:29:41;1.35;;;1.02;;
75408;SDS011;63979;55.644;37.734;2023-11-18T01:34:42;2.03;;;1.23;;
75408;SDS011;63979;55.644;37.734;2023-11-18T01:39:45;4.38;;;1.40;;
75408;SDS011;63979;55.644;37.734;2023-11-18T01:44:45;1.55;;;1.15;;
75408;SDS011;63979;55.644;37.734;2023-11-18T01:49:47;0.75;;;0.75;;
75408;SDS011;63979;55.644;37.734;2023-11-18T01:54:49;2.60;;;1.67;;
75408;SDS011;63979;55.644;37.734;2023-11-18T01:59:50;5.63;;;1.35;;
75408;SDS011;63979;55.644;37.734;2023-11-18T02:04:51;5.18;;;2.47;;
75408;SDS011;63979;55.644;37.734;2023-11-18T02:09:52;3.72;;;1.83;;
75408;SDS011;63979;55.644;37.734;2023-11-18T02:14:53;2.53;;;1.90;;
75408;SDS011;63979;55.644;37.734;2023-11-18T02:19:58;4.88;;;2.08;;
75408;SDS011;63979;55.644;37.734;2023-11-18T02:25:01;4.00;;;1.70;;
75408;SDS011;63979;55.644;37.734;2023-11-18T02:30:07;6.95;;;2.30;;
75408;SDS011;63979;55.644;37.734;2023-11-18T02:45:31;3.60;;;1.38;;
75408;SDS011;63979;55.644;37.734;2023-11-18T02:50:32;5.70;;;2.78;;
75408;SDS011;63979;55.644;37.734;2023-11-18T02:55:35;3.42;;;2.15;;
75408;SDS011;63979;55.644;37.734;2023-11-18T03:00:36;3.58;;;1.90;;
75408;SDS011;63979;55.644;37.734;2023-11-18T03:05:38;2.65;;;2.17;;
75408;SDS011;63979;55.644;37.734;2023-11-18T03:10:40;4.03;;;2.10;;
75408;SDS011;63979;55.644;37.734;2023-11-18T03:20:47;1.60;;;1.50;;
75408;SDS011;63979;55.644;37.734;2023-11-18T03:25:49;4.90;;;2.10;;
75408;SDS011;63979;55.644;37.734;2023-11-18T03:30:52;2.97;;;2.50;;
75408;SDS011;63979;55.644;37.734;2023-11-18T03:35:54;3.67;;;1.92;;
75408;SDS011;63979;55.644;37.734;2023-11-18T03:40:56;2.90;;;1.92;;
75408;SDS011;63979;55.644;37.734;2023-11-18T03:45:59;8.57;;;2.40;;
75408;SDS011;63979;55.644;37.734;2023-11-18T03:51:00;4.13;;;2.45;;
75408;SDS011;63979;55.644;37.734;2023-11-18T03:56:01;1.63;;;1.50;;
75408;SDS011;63979;55.644;37.734;2023-11-18T04:01:05;2.20;;;1.98;;
75408;SDS011;63979;55.644;37.734;2023-11-18T04:06:07;3.80;;;1.83;;
75408;SDS011;63979;55.644;37.734;2023-11-18T04:11:08;5.25;;;2.47;;
75408;SDS011;63979;55.644;37.734;2023-11-18T04:16:13;3.72;;;2.10;;
75408;SDS011;63979;55.644;37.734;2023-11-18T04:21:15;2.78;;;2.05;;
75408;SDS011;63979;55.644;37.734;2023-11-18T04:26:17;3.17;;;2.08;;
75408;SDS011;63979;55.644;37.734;2023-11-18T04:31:17;2.38;;;1.75;;
75408;SDS011;63979;55.644;37.734;2023-11-18T04:36:18;2.35;;;1.83;;
75408;SDS011;63979;55.644;37.734;2023-11-18T04:41:22;2.45;;;1.92;;
75408;SDS011;63979;55.644;37.734;2023-11-18T04:46:23;2.55;;;2.25;;
75408;SDS011;63979;55.644;37.734;2023-11-18T04:51:24;2.75;;;1.50;;
75408;SDS011;63979;55.644;37.734;2023-11-18T04:56:25;4.57;;;2.42;;
75408;SDS011;63979;55.644;37.734;2023-11-18T05:01:26;3.80;;;2.55;;
75408;SDS011;63979;55.644;37.734;2023-11-18T05:06:27;2.95;;;1.77;;
75408;SDS011;63979;55.644;37.734;2023-11-18T05:11:28;3.28;;;1.45;;
75408;SDS011;63979;55.644;37.734;2023-11-18T05:16:29;2.30;;;1.75;;
75408;SDS011;63979;55.644;37.734;2023-11-18T05:21:30;2.97;;;1.20;;
75408;SDS011;63979;55.644;37.734;2023-11-18T05:26:31;1.88;;;1.40;;
75408;SDS011;63979;55.644;37.734;2023-11-18T05:31:35;6.82;;;2.63;;
75408;SDS011;63979;55.644;37.734;2023-11-18T05:36:37;3.00;;;1.55;;
75408;SDS011;63979;55.644;37.734;2023-11-18T05:41:38;5.20;;;1.88;;
75408;SDS011;63979;55.644;37.734;2023-11-18T05:46:40;3.42;;;1.50;;
75408;SDS011;63979;55.644;37.734;2023-11-18T05:51:40;4.03;;;1.38;;
75408;SDS011;63979;55.644;37.734;2023-11-18T05:56:41;3.45;;;1.40;;
75408;SDS011;63979;55.644;37.734;2023-11-18T06:01:42;2.30;;;1.65;;
75408;SDS011;63979;55.644;37.734;2023-11-18T06:06:43;3.42;;;1.70;;
75408;SDS011;63979;55.644;37.734;2023-11-18T06:11:43;9.10;;;2.30;;
75408;SDS011;63979;55.644;37.734;2023-11-18T06:16:45;2.75;;;1.88;;
75408;SDS011;63979;55.644;37.734;2023-11-18T06:21:48;4.32;;;1.67;;
75408;SDS011;63979;55.644;37.734;2023-11-18T06:26:49;2.40;;;1.80;;
75408;SDS011;63979;55.644;37.734;2023-11-18T06:31:50;7.72;;;2.15;;
75408;SDS011;63979;55.644;37.734;2023-11-18T06:36:50;8.27;;;2.33;;
75408;SDS011;63979;55.644;37.734;2023-11-18T06:41:51;7.35;;;2.63;;
75408;SDS011;63979;55.644;37.734;2023-11-18T06:46:53;6.60;;;3.63;;
75408;SDS011;63979;55.644;37.734;2023-11-18T06:51:54;4.97;;;2.88;;
75408;SDS011;63979;55.644;37.734;2023-11-18T06:56:55;5.90;;;3.05;;
75408;SDS011;63979;55.644;37.734;2023-11-18T07:01:56;7.43;;;2.85;;
75408;SDS011;63979;55.644;37.734;2023-11-18T07:06:57;6.10;;;3.22;;
75408;SDS011;63979;55.644;37.734;2023-11-18T07:11:58;5.22;;;2.70;;
75408;SDS011;63979;55.644;37.734;2023-11-18T07:16:58;7.82;;;3.45;;
75408;SDS011;63979;55.644;37.734;2023-11-18T07:21:59;9.00;;;2.40;;
75408;SDS011;63979;55.644;37.734;2023-11-18T07:27:00;6.70;;;2.75;;
75408;SDS011;63979;55.644;37.734;2023-11-18T07:32:01;7.40;;;3.05;;
75408;SDS011;63979;55.644;37.734;2023-11-18T07:37:05;3.92;;;3.13;;
75408;SDS011;63979;55.644;37.734;2023-11-18T07:42:08;92.70;;;15.02;;
75408;SDS011;63979;55.644;37.734;2023-11-18T07:47:09;3.53;;;2.42;;
75408;SDS011;63979;55.644;37.734;2023-11-18T07:52:10;5.05;;;3.25;;
75408;SDS011;63979;55.644;37.734;2023-11-18T07:57:10;10.32;;;4.20;;
75408;SDS011;63979;55.644;37.734;2023-11-18T08:02:11;8.25;;;4.28;;
75408;SDS011;63979;55.644;37.734;2023-11-18T08:07:14;4.68;;;3.58;;
75408;SDS011;63979;55.644;37.734;2023-11-18T08:12:15;10.18;;;3.80;;
75408;SDS011;63979;55.644;37.734;2023-11-18T08:17:16;5.10;;;3.78;;
75408;SDS011;63979;55.644;37.734;2023-11-18T08:22:17;8.40;;;4.38;;
75408;SDS011;63979;55.644;37.734;2023-11-18T08:27:19;8.20;;;5.10;;
75408;SDS011;63979;55.644;37.734;2023-11-18T08:32:20;6.03;;;4.30;;
75408;SDS011;63979;55.644;37.734;2023-11-18T08:37:23;7.65;;;3.47;;
75408;SDS011;63979;55.644;37.734;2023-11-18T08:42:23;5.30;;;3.33;;
75408;SDS011;63979;55.644;37.734;2023-11-18T08:47:25;9.32;;;5.10;;
75408;SDS011;63979;55.644;37.734;2023-11-18T08:52:26;7.50;;;3.97;;
75408;SDS011;63979;55.644;37.734;2023-11-18T08:57:26;9.48;;;3.50;;
75408;SDS011;63979;55.644;37.734;2023-11-18T09:02:27;5.25;;;3.85;;
75408;SDS011;63979;55.644;37.734;2023-11-18T09:07:29;6.97;;;3.60;;
75408;SDS011;63979;55.644;37.734;2023-11-18T09:12:30;5.47;;;4.03;;
75408;SDS011;63979;55.644;37.734;2023-11-18T09:17:31;7.05;;;3.83;;
75408;SDS011;63979;55.644;37.734;2023-11-18T09:22:32;9.07;;;4.13;;
75408;SDS011;63979;55.644;37.734;2023-11-18T09:27:33;6.78;;;3.22;;
75408;SDS011;63979;55.644;37.734;2023-11-18T09:32:34;7.75;;;3.72;;
75408;SDS011;63979;55.644;37.734;2023-11-18T09:37:35;7.68;;;3.50;;
75408;SDS011;63979;55.644;37.734;2023-11-18T09:42:38;15.45;;;5.32;;
75408;SDS011;63979;55.644;37.734;2023-11-18T09:47:42;5.65;;;4.45;;
75408;SDS011;63979;55.644;37.734;2023-11-18T09:52:48;5.40;;;4.43;;
75408;SDS011;63979;55.644;37.734;2023-11-18T09:57:55;10.82;;;4.75;;
75408;SDS011;63979;55.644;37.734;2023-11-18T10:03:04;12.25;;;4.72;;
75408;SDS011;63979;55.644;37.734;2023-11-18T10:08:08;10.18;;;5.00;;
75408;SDS011;63979;55.644;37.734;2023-11-18T10:13:09;8.00;;;5.13;;
75408;SDS011;63979;55.644;37.734;2023-11-18T10:18:22;6.00;;;5.03;;
75408;SDS011;63979;55.644;37.734;2023-11-18T10:23:23;12.23;;;6.03;;
75408;SDS011;63979;55.644;37.734;2023-11-18T10:28:32;8.60;;;5.07;;
75408;SDS011;63979;55.644;37.734;2023-11-18T10:33:34;11.13;;;5.13;;
75408;SDS011;63979;55.644;37.734;2023-11-18T10:38:39;8.77;;;4.78;;
75408;SDS011;63979;55.644;37.734;2023-11-18T10:43:47;7.13;;;3.90;;
75408;SDS011;63979;55.644;37.734;2023-11-18T10:48:51;6.72;;;4.40;;
75408;SDS011;63979;55.644;37.734;2023-11-18T10:53:52;8.25;;;5.90;;
75408;SDS011;63979;55.644;37.734;2023-11-18T11:09:12;10.55;;;5.07;;
75408;SDS011;63979;55.644;37.734;2023-11-18T11:14:20;8.20;;;4.88;;
75408;SDS011;63979;55.644;37.734;2023-11-18T11:19:34;7.10;;;4.90;;
75408;SDS011;63979;55.644;37.734;2023-11-18T11:30:23;11.30;;;5.65;;
75408;SDS011;63979;55.644;37.734;2023-11-18T11:35:32;9.65;;;4.90;;
75408;SDS011;63979;55.644;37.734;2023-11-18T11:40:39;8.75;;;5.20;;
75408;SDS011;63979;55.644;37.734;2023-11-18T11:45:42;9.13;;;5.88;;
75408;SDS011;63979;55.644;37.734;2023-11-18T11:55:48;17.20;;;6.35;;
75408;SDS011;63979;55.644;37.734;2023-11-18T12:00:52;14.60;;;6.30;;
75408;SDS011;63979;55.644;37.734;2023-11-18T12:05:54;15.25;;;6.10;;
75408;SDS011;63979;55.644;37.734;2023-11-18T12:15:57;11.32;;;5.25;;
75408;SDS011;63979;55.644;37.734;2023-11-18T12:20:58;12.40;;;4.53;;
75408;SDS011;63979;55.644;37.734;2023-11-18T12:26:02;16.63;;;5.55;;
75408;SDS011;63979;55.644;37.734;2023-11-18T12:31:41;11.13;;;6.22;;
75408;SDS011;63979;55.644;37.734;2023-11-18T12:48:06;11.60;;;5.55;;
75408;SDS011;63979;55.644;37.734;2023-11-18T12:53:14;15.93;;;4.97;;
75408;SDS011;63979;55.644;37.734;2023-11-18T12:58:17;6.30;;;3.47;;
75408;SDS011;63979;55.644;37.734;2023-11-18T13:03:18;9.13;;;4.57;;
75408;SDS011;63979;55.644;37.734;2023-11-18T13:08:20;7.88;;;4.90;;
75408;SDS011;63979;55.644;37.734;2023-11-18T13:13:22;8.13;;;3.55;;
75408;SDS011;63979;55.644;37.734;2023-11-18T13:18:23;13.77;;;4.03;;
75408;SDS011;63979;55.644;37.734;2023-11-18T13:23:25;17.42;;;4.45;;
75408;SDS011;63979;55.644;37.734;2023-11-18T13:28:26;15.73;;;4.18;;
75408;SDS011;63979;55.644;37.734;2023-11-18T13:33:27;9.77;;;3.83;;
75408;SDS011;63979;55.644;37.734;2023-11-18T13:38:28;7.85;;;3.78;;
75408;SDS011;63979;55.644;37.734;2023-11-18T13:43:42;6.25;;;2.70;;
75408;SDS011;63979;55.644;37.734;2023-11-18T13:48:47;8.02;;;3.97;;
75408;SDS011;63979;55.644;37.734;2023-11-18T13:58:52;11.15;;;3.75;;
75408;SDS011;63979;55.644;37.734;2023-11-18T14:03:54;4.50;;;3.38;;
75408;SDS011;63979;55.644;37.734;2023-11-18T14:08:55;4.75;;;3.20;;
75408;SDS011;63979;55.644;37.734;2023-11-18T14:13:56;12.40;;;3.33;;
75408;SDS011;63979;55.644;37.734;2023-11-18T14:18:58;3.85;;;2.92;;
75408;SDS011;63979;55.644;37.734;2023-11-18T14:24:00;5.90;;;3.55;;
75408;SDS011;63979;55.644;37.734;2023-11-18T14:29:03;4.35;;;2.85;;
75408;SDS011;63979;55.644;37.734;2023-11-18T14:34:04;3.13;;;2.83;;
75408;SDS011;63979;55.644;37.734;2023-11-18T14:39:05;6.75;;;3.42;;
75408;SDS011;63979;55.644;37.734;2023-11-18T14:44:10;6.40;;;3.35;;
75408;SDS011;63979;55.644;37.734;2023-11-18T14:49:11;5.00;;;3.38;;
75408;SDS011;63979;55.644;37.734;2023-11-18T14:54:12;6.20;;;4.07;;
75408;SDS011;63979;55.644;37.734;2023-11-18T14:59:13;8.75;;;4.18;;
75408;SDS011;63979;55.644;37.734;2023-11-18T15:04:14;5.85;;;2.90;;
75408;SDS011;63979;55.644;37.734;2023-11-18T15:09:15;5.63;;;3.00;;
75408;SDS011;63979;55.644;37.734;2023-11-18T15:14:15;5.47;;;2.72;;
75408;SDS011;63979;55.644;37.734;2023-11-18T15:19:17;4.38;;;2.53;;
75408;SDS011;63979;55.644;37.734;2023-11-18T15:24:19;7.88;;;3.35;;
75408;SDS011;63979;55.644;37.734;2023-11-18T15:29:21;4.72;;;2.38;;
75408;SDS011;63979;55.644;37.734;2023-11-18T15:34:28;10.68;;;3.63;;
75408;SDS011;63979;55.644;37.734;2023-11-18T15:39:29;4.78;;;2.65;;
75408;SDS011;63979;55.644;37.734;2023-11-18T15:44:30;9.43;;;4.20;;
75408;SDS011;63979;55.644;37.734;2023-11-18T15:49:33;10.85;;;4.40;;
75408;SDS011;63979;55.644;37.734;2023-11-18T15:54:35;16.95;;;6.68;;
75408;SDS011;63979;55.644;37.734;2023-11-18T15:59:37;13.52;;;5.97;;
75408;SDS011;63979;55.644;37.734;2023-11-18T16:04:38;20.48;;;7.75;;
75408;SDS011;63979;55.644;37.734;2023-11-18T16:09:40;16.90;;;8.35;;
75408;SDS011;63979;55.644;37.734;2023-11-18T16:14:40;12.38;;;6.80;;
75408;SDS011;63979;55.644;37.734;2023-11-18T16:19:41;14.82;;;6.05;;
75408;SDS011;63979;55.644;37.734;2023-11-18T16:24:43;17.80;;;6.50;;
75408;SDS011;63979;55.644;37.734;2023-11-18T16:29:43;9.90;;;4.55;;
75408;SDS011;63979;55.644;37.734;2023-11-18T16:34:44;16.23;;;7.50;;
75408;SDS011;63979;55.644;37.734;2023-11-18T16:39:45;10.20;;;6.70;;
75408;SDS011;63979;55.644;37.734;2023-11-18T16:44:46;11.05;;;5.30;;
75408;SDS011;63979;55.644;37.734;2023-11-18T16:49:49;10.75;;;5.70;;
75408;SDS011;63979;55.644;37.734;2023-11-18T16:54:50;12.27;;;6.03;;
75408;SDS011;63979;55.644;37.734;2023-11-18T16:59:51;16.58;;;6.25;;
75408;SDS011;63979;55.644;37.734;2023-11-18T17:04:52;11.10;;;5.95;;
75408;SDS011;63979;55.644;37.734;2023-11-18T17:09:53;13.38;;;5.80;;
75408;SDS011;63979;55.644;37.734;2023-11-18T17:14:54;11.80;;;6.43;;
75408;SDS011;63979;55.644;37.734;2023-11-18T17:19:55;9.15;;;5.05;;
75408;SDS011;63979;55.644;37.734;2023-11-18T17:24:56;11.80;;;5.32;;
75408;SDS011;63979;55.644;37.734;2023-11-18T17:29:56;12.10;;;6.10;;
75408;SDS011;63979;55.644;37.734;2023-11-18T17:34:57;6.10;;;3.97;;
75408;SDS011;63979;55.644;37.734;2023-11-18T17:39:59;15.93;;;6.63;;
75408;SDS011;63979;55.644;37.734;2023-11-18T17:45:00;15.82;;;6.60;;
75408;SDS011;63979;55.644;37.734;2023-11-18T17:50:06;16.30;;;6.25;;
75408;SDS011;63979;55.644;37.734;2023-11-18T17:55:09;11.80;;;6.10;;
75408;SDS011;63979;55.644;37.734;2023-11-18T18:00:12;9.68;;;6.65;;
75408;SDS011;63979;55.644;37.734;2023-11-18T18:05:19;10.80;;;6.07;;
75408;SDS011;63979;55.644;37.734;2023-11-18T18:10:20;16.25;;;8.02;;
75408;SDS011;63979;55.644;37.734;2023-11-18T18:15:27;16.33;;;7.95;;
75408;SDS011;63979;55.644;37.734;2023-11-18T18:20:28;13.52;;;6.88;;
75408;SDS011;63979;55.644;37.734;2023-11-18T18:25:28;13.32;;;8.63;;
75408;SDS011;63979;55.644;37.734;2023-11-18T18:30:29;15.23;;;8.02;;
75408;SDS011;63979;55.644;37.734;2023-11-18T18:35:30;15.40;;;7.72;;
75408;SDS011;63979;55.644;37.734;2023-11-18T18:40:31;20.80;;;10.52;;
75408;SDS011;63979;55.644;37.734;2023-11-18T18:45:35;26.17;;;11.57;;
75408;SDS011;63979;55.644;37.734;2023-11-18T18:55:39;25.67;;;10.10;;
75408;SDS011;63979;55.644;37.734;2023-11-18T19:00:40;14.65;;;10.57;;
75408;SDS011;63979;55.644;37.734;2023-11-18T19:05:41;21.08;;;11.85;;
75408;SDS011;63979;55.644;37.734;2023-11-18T19:10:42;26.98;;;13.05;;
75408;SDS011;63979;55.644;37.734;2023-11-18T19:15:43;16.50;;;11.10;;
75408;SDS011;63979;55.644;37.734;2023-11-18T19:20:44;17.15;;;9.90;;
75408;SDS011;63979;55.644;37.734;2023-11-18T19:25:45;15.65;;;10.23;;
75408;SDS011;63979;55.644;37.734;2023-11-18T19:30:46;20.60;;;11.13;;
75408;SDS011;63979;55.644;37.734;2023-11-18T19:35:47;19.23;;;11.23;;
75408;SDS011;63979;55.644;37.734;2023-11-18T19:40:47;21.60;;;9.68;;
75408;SDS011;63979;55.644;37.734;2023-11-18T19:45:48;26.30;;;10.15;;
75408;SDS011;63979;55.644;37.734;2023-11-18T19:50:51;17.92;;;9.80;;
75408;SDS011;63979;55.644;37.734;2023-11-18T19:55:53;15.32;;;11.15;;
75408;SDS011;63979;55.644;37.734;2023-11-18T20:00:54;20.70;;;10.77;;
75408;SDS011;63979;55.644;37.734;2023-11-18T20:05:56;15.80;;;8.57;;
75408;SDS011;63979;55.644;37.734;2023-11-18T20:10:56;23.45;;;10.10;;
75408;SDS011;63979;55.644;37.734;2023-11-18T20:15:57;22.83;;;11.20;;
75408;SDS011;63979;55.644;37.734;2023-11-18T20:20:58;30.52;;;13.00;;
75408;SDS011;63979;55.644;37.734;2023-11-18T20:25:59;14.00;;;8.75;;
75408;SDS011;63979;55.644;37.734;2023-11-18T20:31:00;12.82;;;8.07;;
75408;SDS011;63979;55.644;37.734;2023-11-18T20:36:01;17.95;;;11.52;;
75408;SDS011;63979;55.644;37.734;2023-11-18T20:41:02;16.98;;;8.88;;
75408;SDS011;63979;55.644;37.734;2023-11-18T20:46:02;15.98;;;7.95;;
75408;SDS011;63979;55.644;37.734;2023-11-18T20:51:03;21.08;;;10.68;;
75408;SDS011;63979;55.644;37.734;2023-11-18T20:56:05;13.80;;;7.75;;
75408;SDS011;63979;55.644;37.734;2023-11-18T21:01:06;14.95;;;6.90;;
75408;SDS011;63979;55.644;37.734;2023-11-18T21:06:11;8.52;;;5.32;;
75408;SDS011;63979;55.644;37.734;2023-11-18T21:11:12;12.68;;;6.28;;
75408;SDS011;63979;55.644;37.734;2023-11-18T21:16:13;10.82;;;5.57;;
75408;SDS011;63979;55.644;37.734;2023-11-18T21:21:14;7.68;;;4.43;;
75408;SDS011;63979;55.644;37.734;2023-11-18T21:26:14;10.00;;;4.43;;
75408;SDS011;63979;55.644;37.734;2023-11-18T21:31:15;6.78;;;3.75;;
75408;SDS011;63979;55.644;37.734;2023-11-18T21:36:17;13.02;;;4.63;;
75408;SDS011;63979;55.644;37.734;2023-11-18T21:41:19;7.93;;;4.38;;
75408;SDS011;63979;55.644;37.734;2023-11-18T21:46:20;3.30;;;2.85;;
75408;SDS011;63979;55.644;37.734;2023-11-18T21:51:23;7.53;;;3.47;;
75408;SDS011;63979;55.644;37.734;2023-11-18T21:56:24;10.05;;;3.85;;
75408;SDS011;63979;55.644;37.734;2023-11-18T22:01:25;6.78;;;4.53;;
75408;SDS011;63979;55.644;37.734;2023-11-18T22:06:26;6.57;;;2.83;;
75408;SDS011;63979;55.644;37.734;2023-11-18T22:11:26;10.45;;;4.82;;
75408;SDS011;63979;55.644;37.734;2023-11-18T22:16:28;10.93;;;3.58;;
75408;SDS011;63979;55.644;37.734;2023-11-18T22:21:29;2.60;;;2.33;;
75408;SDS011;63979;55.644;37.734;2023-11-18T22:26:32;4.47;;;2.97;;
75408;SDS011;63979;55.644;37.734;2023-11-18T22:31:33;8.20;;;4.28;;
75408;SDS011;63979;55.644;37.734;2023-11-18T22:36:34;5.30;;;2.58;;
75408;SDS011;63979;55.644;37.734;2023-11-18T22:41:35;6.75;;;3.78;;
75408;SDS011;63979;55.644;37.734;2023-11-18T22:46:36;7.07;;;2.90;;
75408;SDS011;63979;55.644;37.734;2023-11-18T22:51:37;4.22;;;3.35;;
75408;SDS011;63979;55.644;37.734;2023-11-18T22:56:38;9.88;;;2.55;;
75408;SDS011;63979;55.644;37.734;2023-11-18T23:01:39;3.85;;;2.40;;
75408;SDS011;63979;55.644;37.734;2023-11-18T23:06:40;4.53;;;3.58;;
75408;SDS011;63979;55.644;37.734;2023-11-18T23:11:43;8.90;;;4.10;;
75408;SDS011;63979;55.644;37.734;2023-11-18T23:16:46;6.10;;;4.50;;
75408;SDS011;63979;55.644;37.734;2023-11-18T23:21:51;9.30;;;4.82;;
75408;SDS011;63979;55.644;37.734;2023-11-18T23:26:51;5.55;;;4.05;;
75408;SDS011;63979;55.644;37.734;2023-11-18T23:31:52;11.95;;;4.85;;
75408;SDS011;63979;55.644;37.734;2023-11-18T23:36:53;5.03;;;4.00;;
75408;SDS011;63979;55.644;37.734;2023-11-18T23:41:54;8.57;;;3.85;;
75408;SDS011;63979;55.644;37.734;2023-11-18T23:46:55;6.13;;;4.25;;
75408;SDS011;63979;55.644;37.734;2023-11-18T23:51:57;6.93;;;3.38;;
75408;SDS011;63979;55.644;37.734;2023-11-18T23:56:57;7.30;;;3.85;;
